Courtland, Minnesota
Current Conditions -  °F | °C
As of 10:34 PM on Saturday 22 Nov 2014 (Local Time) from KULM Reporting Station
Haze Haze  
Wind Chill: 39°   Ceiling: 900
Heat Index: 46°   Visibility: 5mi
Dew Point: 46°   Wind: 17mph
Humidity: 100%   Direction: 200°SSW
Pressure: 29.47"   Gusts: 24mph
Location:  44.27°N, 94.34°W
Report Text: KULM 230434Z AUTO 20015G21KT 5SM BR BKN009 08/08 A2947 RMK AO2
Loading
Personal Weather Stations






























Interactive Weather Map New forecast layout! Learn more

10-Day Weather Forecast

Advertisements
Track Severe Weather on mobile